OMA weather

Eppley Airfield
Omaha, Nebraska, United States

Public forecast

Using degrees Fahrenheit for public forecast. Weather courtesy of forecast.io.

Current aviation weather report (METAR) for Eppley Airfield

Retrieved 2019/11/13 07:52 UTC (35 minutes ago):

KOMA 130752Z 17014KT 10SM OVC250 M04/M11 A2997 RMK AO2 SLP163 T10441111

Aviation forecast (TAF) for Eppley Airfield

Retrieved 2019/11/13 06:24 UTC (2 hours ago):

TAF KOMA 130522Z 1306/1406 18015KT P6SM SCT250 WS020/22050KT FM131200 17012KT P6SM VCSH OVC120 FM131800 22010KT 5SM -RASN OVC040 FM132000 28007KT P6SM OVC040 FM140100 32008KT P6SM BKN025